createdAt,value
2022-08-19T00:00:40.949Z,0.00
2022-08-19T00:01:40.956Z,0.00
2022-08-19T00:02:50.067Z,0.00
2022-08-19T00:03:41.920Z,0.00
2022-08-19T00:04:41.018Z,0.00
2022-08-19T00:05:40.902Z,0.00
2022-08-19T00:06:40.931Z,0.00
2022-08-19T00:07:40.877Z,0.00
2022-08-19T00:08:42.947Z,0.00
2022-08-19T00:09:40.890Z,0.00
2022-08-19T00:10:40.886Z,0.00
2022-08-19T00:11:40.880Z,0.00
2022-08-19T00:12:46.852Z,0.00
2022-08-19T00:13:41.872Z,0.00
2022-08-19T00:14:40.791Z,0.00
2022-08-19T00:15:40.811Z,0.00
2022-08-19T00:16:40.817Z,0.00
2022-08-19T00:17:42.055Z,0.00
2022-08-19T00:18:40.850Z,0.00
2022-08-19T00:19:40.741Z,0.00
2022-08-19T00:20:40.733Z,0.00
2022-08-19T00:21:40.791Z,0.00
2022-08-19T00:22:40.738Z,0.00
2022-08-19T00:23:41.033Z,0.00
2022-08-19T00:24:40.683Z,0.00
2022-08-19T00:25:40.673Z,0.00
2022-08-19T00:26:44.137Z,0.00
2022-08-19T00:27:40.675Z,0.00
2022-08-19T00:28:40.641Z,0.00
2022-08-19T00:29:40.631Z,0.00
2022-08-19T00:30:40.625Z,0.00
2022-08-19T00:31:40.651Z,0.00
2022-08-19T00:32:40.600Z,0.00
2022-08-19T00:33:40.602Z,0.00
2022-08-19T00:34:40.605Z,0.00
2022-08-19T00:35:40.578Z,0.00
2022-08-19T00:36:40.598Z,0.00
2022-08-19T00:37:40.543Z,0.00
2022-08-19T00:38:40.594Z,0.00
2022-08-19T00:39:40.549Z,0.00
2022-08-19T00:40:40.518Z,0.00
2022-08-19T00:41:40.561Z,0.00
2022-08-19T00:42:40.499Z,0.00
2022-08-19T00:43:40.483Z,0.00
2022-08-19T00:44:40.491Z,0.00
2022-08-19T00:45:40.489Z,0.00
2022-08-19T00:46:40.483Z,0.00
2022-08-19T00:47:40.447Z,0.00
2022-08-19T00:48:40.443Z,0.00
2022-08-19T00:49:40.438Z,0.00
2022-08-19T00:50:40.496Z,0.00
2022-08-19T00:51:41.429Z,0.00
2022-08-19T00:52:40.391Z,0.00
2022-08-19T00:53:40.385Z,0.00
2022-08-19T00:54:40.369Z,0.00
2022-08-19T00:55:40.366Z,0.00
2022-08-19T00:56:40.372Z,0.00
2022-08-19T00:57:40.337Z,0.00
2022-08-19T00:58:40.332Z,0.00
2022-08-19T00:59:58.779Z,0.00
2022-08-19T01:00:41.314Z,0.00
2022-08-19T01:01:40.367Z,0.00
2022-08-19T01:02:40.275Z,0.00
2022-08-19T01:03:57.691Z,0.00
2022-08-19T01:04:41.252Z,0.00
2022-08-19T01:05:40.261Z,0.00
2022-08-19T01:06:40.300Z,0.00
2022-08-19T01:07:40.232Z,0.00
2022-08-19T01:08:40.210Z,0.00
2022-08-19T01:09:40.201Z,0.00
2022-08-19T01:10:40.183Z,0.00
2022-08-19T01:11:40.223Z,0.00
2022-08-19T01:12:40.170Z,0.00
2022-08-19T01:13:49.161Z,0.00
2022-08-19T01:14:41.146Z,0.00
2022-08-19T01:15:40.174Z,0.00
2022-08-19T01:16:40.239Z,0.00
2022-08-19T01:17:40.125Z,0.00
2022-08-19T01:18:40.102Z,0.00
2022-08-19T01:19:43.602Z,0.00
2022-08-19T01:20:40.076Z,0.00
2022-08-19T01:21:40.107Z,0.00
2022-08-19T01:22:40.061Z,0.00
2022-08-19T01:23:40.090Z,0.00
2022-08-19T01:24:49.487Z,0.00
2022-08-19T01:25:41.026Z,0.00
2022-08-19T01:26:42.079Z,0.00
2022-08-19T01:27:43.638Z,0.00
2022-08-19T01:28:42.292Z,0.00
2022-08-19T01:29:39.981Z,0.00
2022-08-19T01:30:40.025Z,0.00
2022-08-19T01:31:41.671Z,0.00
2022-08-19T01:32:39.958Z,0.00
2022-08-19T01:33:39.951Z,0.00
2022-08-19T01:34:39.950Z,0.00
2022-08-19T01:35:39.945Z,0.00
2022-08-19T01:36:39.946Z,0.00
2022-08-19T01:37:39.911Z,0.00
2022-08-19T01:38:44.132Z,0.00
2022-08-19T01:39:39.904Z,0.00
2022-08-19T01:40:39.880Z,0.00
2022-08-19T01:41:39.892Z,0.00
2022-08-19T01:42:39.839Z,0.00
2022-08-19T01:44:03.828Z,0.00
2022-08-19T01:44:40.834Z,0.00
2022-08-19T01:45:39.826Z,0.00
2022-08-19T01:46:39.901Z,0.00
2022-08-19T01:47:39.803Z,0.00
2022-08-19T01:48:39.785Z,0.00
2022-08-19T01:49:39.810Z,0.00
2022-08-19T01:50:39.757Z,0.00
2022-08-19T01:51:40.558Z,0.00
2022-08-19T01:52:39.801Z,0.00
2022-08-19T01:53:39.727Z,0.00
2022-08-19T01:54:39.736Z,0.00
2022-08-19T01:55:41.186Z,0.00
2022-08-19T01:56:39.722Z,0.00
2022-08-19T01:57:39.682Z,0.00
2022-08-19T01:58:39.736Z,0.00
2022-08-19T01:59:39.702Z,0.00
2022-08-19T02:00:39.663Z,0.00
2022-08-19T02:01:39.784Z,0.00
2022-08-19T02:02:39.745Z,0.00
2022-08-19T02:03:39.621Z,0.00
2022-08-19T02:04:39.677Z,0.00
2022-08-19T02:05:39.622Z,0.00
2022-08-19T02:06:39.631Z,0.00
2022-08-19T02:07:39.582Z,0.00
2022-08-19T02:08:39.584Z,0.00
2022-08-19T02:09:39.561Z,0.00
2022-08-19T02:10:39.542Z,0.00
2022-08-19T02:11:39.567Z,0.00
2022-08-19T02:12:39.581Z,0.00
2022-08-19T02:13:39.511Z,0.00
2022-08-19T02:14:39.503Z,0.00
2022-08-19T02:15:39.517Z,0.00
2022-08-19T02:16:39.554Z,0.00
2022-08-19T02:17:39.478Z,0.00
2022-08-19T02:18:39.466Z,0.00
2022-08-19T02:19:39.506Z,0.00
2022-08-19T02:20:39.437Z,0.00
2022-08-19T02:21:39.452Z,0.00
2022-08-19T02:22:39.411Z,0.00
2022-08-19T02:23:39.410Z,0.00
2022-08-19T02:24:39.414Z,0.00
2022-08-19T02:25:39.381Z,0.00
2022-08-19T02:26:39.454Z,0.00
2022-08-19T02:27:39.364Z,0.00
2022-08-19T02:28:39.368Z,0.00
2022-08-19T02:29:39.348Z,0.00
2022-08-19T02:30:39.361Z,0.00
2022-08-19T02:31:39.322Z,0.00
2022-08-19T02:32:44.706Z,0.00
2022-08-19T02:33:40.311Z,0.00
2022-08-19T02:34:39.292Z,0.00
2022-08-19T02:35:39.274Z,0.00
2022-08-19T02:36:42.346Z,0.00
2022-08-19T02:37:39.268Z,0.00
2022-08-19T02:38:39.331Z,0.00
2022-08-19T02:39:39.283Z,0.00
2022-08-19T02:40:39.279Z,0.00
2022-08-19T02:41:39.241Z,0.00
2022-08-19T02:42:39.209Z,0.00
2022-08-19T02:43:39.243Z,0.00
2022-08-19T02:44:39.188Z,0.00
2022-08-19T02:45:40.399Z,0.00
2022-08-19T02:46:39.175Z,0.00
2022-08-19T02:47:39.160Z,0.00
2022-08-19T02:48:39.207Z,0.00
2022-08-19T02:49:39.122Z,0.00
2022-08-19T02:50:39.135Z,0.00
2022-08-19T02:51:39.115Z,0.00
2022-08-19T02:52:39.088Z,0.00
2022-08-19T02:53:39.254Z,0.00
2022-08-19T02:54:39.080Z,0.00
2022-08-19T02:55:45.962Z,0.00
2022-08-19T02:56:40.062Z,0.00
2022-08-19T02:57:39.034Z,0.00
2022-08-19T02:58:39.026Z,0.00
2022-08-19T02:59:40.722Z,0.00
2022-08-19T03:00:42.129Z,0.00
2022-08-19T03:01:39.014Z,0.00
2022-08-19T03:02:39.000Z,0.00
2022-08-19T03:03:39.020Z,0.00
2022-08-19T03:04:38.962Z,0.00
2022-08-19T03:05:55.786Z,0.00
2022-08-19T03:06:39.965Z,0.00
2022-08-19T03:07:38.921Z,0.00
2022-08-19T03:08:38.951Z,0.00
2022-08-19T03:09:38.926Z,0.00
2022-08-19T03:10:38.891Z,0.00
2022-08-19T03:11:38.882Z,0.00
2022-08-19T03:12:38.900Z,0.00
2022-08-19T03:13:38.916Z,0.00
2022-08-19T03:14:38.865Z,0.00
2022-08-19T03:15:38.863Z,0.00
2022-08-19T03:16:38.851Z,0.00
2022-08-19T03:17:38.891Z,0.00
2022-08-19T03:18:38.842Z,0.00
2022-08-19T03:19:38.839Z,0.00
2022-08-19T03:20:38.826Z,0.00
2022-08-19T03:21:38.783Z,0.00
2022-08-19T03:22:38.814Z,0.00
2022-08-19T03:23:38.758Z,0.00
2022-08-19T03:24:38.776Z,0.00
2022-08-19T03:25:38.764Z,0.00
2022-08-19T03:26:38.728Z,0.00
2022-08-19T03:27:38.709Z,0.00
2022-08-19T03:28:38.701Z,0.00
2022-08-19T03:29:43.343Z,0.00
2022-08-19T03:30:39.717Z,0.00
2022-08-19T03:31:43.935Z,0.00
2022-08-19T03:32:41.693Z,0.00
2022-08-19T03:33:39.663Z,0.00
2022-08-19T03:34:38.700Z,0.00
2022-08-19T03:35:38.627Z,0.00
2022-08-19T03:36:38.626Z,0.00
2022-08-19T03:37:38.602Z,0.00
2022-08-19T03:38:38.657Z,0.00
2022-08-19T03:39:38.651Z,0.00
2022-08-19T03:40:38.565Z,0.00
2022-08-19T03:41:45.041Z,0.00
2022-08-19T03:42:59.616Z,0.00
2022-08-19T03:43:39.581Z,0.00
2022-08-19T03:44:38.519Z,0.00
2022-08-19T03:45:38.512Z,0.00
2022-08-19T03:46:38.517Z,0.00
2022-08-19T03:47:38.493Z,0.00
2022-08-19T03:48:38.479Z,0.00
2022-08-19T03:49:38.538Z,0.00
2022-08-19T03:50:38.538Z,0.00
2022-08-19T03:51:38.445Z,0.00
2022-08-19T03:52:38.459Z,0.00
2022-08-19T03:53:38.431Z,0.00
2022-08-19T03:54:38.474Z,0.00
2022-08-19T03:55:38.408Z,0.00
2022-08-19T03:56:38.398Z,0.00
2022-08-19T03:57:38.398Z,0.00
2022-08-19T03:58:38.418Z,0.00
2022-08-19T03:59:38.390Z,0.00
2022-08-19T04:00:38.357Z,0.00
2022-08-19T04:01:38.402Z,0.00
2022-08-19T04:02:38.327Z,0.00
2022-08-19T04:03:38.353Z,0.00
2022-08-19T04:04:38.311Z,0.00
2022-08-19T04:05:38.301Z,0.00
2022-08-19T04:06:39.459Z,0.00
2022-08-19T04:07:38.288Z,0.00
2022-08-19T04:08:38.272Z,0.00
2022-08-19T04:09:38.294Z,0.00
2022-08-19T04:10:38.254Z,0.00
2022-08-19T04:11:43.897Z,0.00
2022-08-19T04:12:39.222Z,0.00
2022-08-19T04:13:38.216Z,0.00
2022-08-19T04:14:41.692Z,0.00
2022-08-19T04:15:38.201Z,0.00
2022-08-19T04:16:38.179Z,0.00
2022-08-19T04:17:38.176Z,0.00
2022-08-19T04:18:38.155Z,0.00
2022-08-19T04:19:38.179Z,0.00
2022-08-19T04:20:38.134Z,0.00
2022-08-19T04:21:38.157Z,0.00
2022-08-19T04:22:38.140Z,0.00
2022-08-19T04:23:38.119Z,0.00
2022-08-19T04:24:39.092Z,0.00
2022-08-19T04:25:38.079Z,0.00
2022-08-19T04:26:38.109Z,0.00
2022-08-19T04:27:38.060Z,0.00
2022-08-19T04:28:38.091Z,0.00
2022-08-19T04:29:38.038Z,0.00
2022-08-19T04:30:38.026Z,0.00
2022-08-19T04:31:38.021Z,0.00
2022-08-19T04:32:38.043Z,0.00
2022-08-19T04:33:37.998Z,0.00
2022-08-19T04:35:01.986Z,0.00
2022-08-19T04:35:38.999Z,0.00
2022-08-19T04:36:37.964Z,0.00
2022-08-19T04:37:37.982Z,0.00
2022-08-19T04:38:37.941Z,0.00
2022-08-19T04:39:37.979Z,0.00
2022-08-19T04:40:37.922Z,0.00
2022-08-19T04:41:37.911Z,0.00
2022-08-19T04:42:37.929Z,0.00
2022-08-19T04:43:37.889Z,0.00
2022-08-19T04:44:39.902Z,0.00
2022-08-19T04:45:43.497Z,0.00
2022-08-19T04:46:40.132Z,0.00
2022-08-19T04:47:47.052Z,0.00
2022-08-19T04:48:43.448Z,0.00
2022-08-19T04:49:38.831Z,0.00
2022-08-19T04:50:37.809Z,0.00
2022-08-19T04:51:37.827Z,0.00
2022-08-19T04:52:37.846Z,5.62
2022-08-19T04:53:38.231Z,5.62
2022-08-19T04:54:39.361Z,5.62
2022-08-19T04:55:38.384Z,5.62
2022-08-19T04:56:37.746Z,5.62
2022-08-19T04:57:37.732Z,5.62
2022-08-19T04:58:37.749Z,5.62
2022-08-19T04:59:37.719Z,5.62
2022-08-19T05:00:37.793Z,5.62
2022-08-19T05:01:37.708Z,5.62
2022-08-19T05:02:37.682Z,5.62
2022-08-19T05:03:37.718Z,5.62
2022-08-19T05:04:37.674Z,5.62
2022-08-19T05:05:45.348Z,5.62
2022-08-19T05:06:38.654Z,5.62
2022-08-19T05:07:37.629Z,5.62
2022-08-19T05:08:37.644Z,5.62
2022-08-19T05:09:58.144Z,5.62
2022-08-19T05:10:38.591Z,5.62
2022-08-19T05:11:37.599Z,5.62
2022-08-19T05:12:37.598Z,5.62
2022-08-19T05:13:37.623Z,5.62
2022-08-19T05:14:37.555Z,5.62
2022-08-19T05:15:37.561Z,5.62
2022-08-19T05:16:37.530Z,5.62
2022-08-19T05:17:38.924Z,5.62
2022-08-19T05:18:37.515Z,5.62
2022-08-19T05:19:37.513Z,5.62
2022-08-19T05:20:37.503Z,11.25
2022-08-19T05:21:37.474Z,11.25
2022-08-19T05:22:37.494Z,11.25
2022-08-19T05:23:37.451Z,11.25
2022-08-19T05:24:47.461Z,11.25
2022-08-19T05:25:38.435Z,11.25
2022-08-19T05:26:37.423Z,11.25
2022-08-19T05:27:37.489Z,11.25
2022-08-19T05:28:37.401Z,11.25
2022-08-19T05:29:37.387Z,11.25
2022-08-19T05:30:46.878Z,11.25
2022-08-19T05:31:38.384Z,11.25
2022-08-19T05:32:37.362Z,16.88
2022-08-19T05:33:37.419Z,16.88
2022-08-19T05:34:37.331Z,16.88
2022-08-19T05:35:37.324Z,16.88
2022-08-19T05:36:37.344Z,16.88
2022-08-19T05:37:37.310Z,16.88
2022-08-19T05:38:37.285Z,16.88
2022-08-19T05:39:37.336Z,16.88
2022-08-19T05:40:37.269Z,16.88
2022-08-19T05:41:37.295Z,16.88
2022-08-19T05:42:37.249Z,16.88
2022-08-19T05:43:37.240Z,16.88
2022-08-19T05:44:37.227Z,16.88
2022-08-19T05:45:37.249Z,16.88
2022-08-19T05:46:37.209Z,16.88
2022-08-19T05:47:42.031Z,16.88
2022-08-19T05:48:38.189Z,16.88
2022-08-19T05:49:37.202Z,16.88
2022-08-19T05:50:37.178Z,16.88
2022-08-19T05:51:37.155Z,16.88
2022-08-19T05:52:37.144Z,16.88
2022-08-19T05:53:37.560Z,16.88
2022-08-19T05:54:37.161Z,16.88
2022-08-19T05:55:37.107Z,16.88
2022-08-19T05:56:37.100Z,22.50
2022-08-19T05:57:37.084Z,22.50
2022-08-19T05:58:37.069Z,22.50
2022-08-19T05:59:37.088Z,22.50
2022-08-19T06:00:37.059Z,22.50
2022-08-19T06:01:37.041Z,22.50
2022-08-19T06:02:37.093Z,22.50
2022-08-19T06:03:37.046Z,22.50
2022-08-19T06:04:37.008Z,22.50
2022-08-19T06:05:44.766Z,22.50
2022-08-19T06:06:37.988Z,22.50
2022-08-19T06:07:36.971Z,22.50
2022-08-19T06:08:36.982Z,22.50
2022-08-19T06:09:36.980Z,22.50
2022-08-19T06:10:36.935Z,22.50
2022-08-19T06:11:36.929Z,16.88
2022-08-19T06:12:36.917Z,16.88
2022-08-19T06:13:36.908Z,16.88
2022-08-19T06:14:40.130Z,11.25
2022-08-19T06:15:36.891Z,16.88
2022-08-19T06:16:36.892Z,16.88
2022-08-19T06:17:36.867Z,16.88
2022-08-19T06:18:36.872Z,16.88
2022-08-19T06:19:40.851Z,16.88
2022-08-19T06:20:55.130Z,11.25
2022-08-19T06:21:37.821Z,11.25
2022-08-19T06:22:36.814Z,11.25
2022-08-19T06:23:36.826Z,16.88
2022-08-19T06:24:36.795Z,16.88
2022-08-19T06:25:36.783Z,16.88
2022-08-19T06:26:36.812Z,16.88
2022-08-19T06:27:41.984Z,16.88
2022-08-19T06:28:37.776Z,16.88
2022-08-19T06:29:36.729Z,16.88
2022-08-19T06:30:36.724Z,16.88
2022-08-19T06:31:36.708Z,22.50
2022-08-19T06:32:39.905Z,22.50
2022-08-19T06:33:37.708Z,28.12
2022-08-19T06:34:36.718Z,22.50
2022-08-19T06:35:36.731Z,22.50
2022-08-19T06:36:36.666Z,22.50
2022-08-19T06:37:37.869Z,22.50
2022-08-19T06:38:36.680Z,28.12
2022-08-19T06:39:36.713Z,28.12
2022-08-19T06:40:36.672Z,28.12
2022-08-19T06:41:39.478Z,28.12
2022-08-19T06:42:36.616Z,28.12
2022-08-19T06:43:36.584Z,33.75
2022-08-19T06:44:42.470Z,33.75
2022-08-19T06:45:39.415Z,33.75
2022-08-19T06:46:36.596Z,33.75
2022-08-19T06:47:36.543Z,33.75
2022-08-19T06:48:45.050Z,33.75
2022-08-19T06:49:37.519Z,33.75
2022-08-19T06:50:36.736Z,28.12
2022-08-19T06:51:36.577Z,28.12
2022-08-19T06:52:38.386Z,28.12
2022-08-19T06:53:36.483Z,28.12
2022-08-19T06:54:37.599Z,28.12
2022-08-19T06:55:36.457Z,22.50
2022-08-19T06:56:36.503Z,22.50
2022-08-19T06:57:36.428Z,22.50
2022-08-19T06:58:36.429Z,22.50
2022-08-19T06:59:36.419Z,16.88
2022-08-19T07:00:36.404Z,16.88
2022-08-19T07:01:36.395Z,16.88
2022-08-19T07:02:36.419Z,16.88
2022-08-19T07:03:37.416Z,16.88
2022-08-19T07:04:36.352Z,16.88
2022-08-19T07:05:36.341Z,16.88
2022-08-19T07:06:44.217Z,16.88
2022-08-19T07:07:37.365Z,16.88
2022-08-19T07:09:36.302Z,16.88
2022-08-19T07:10:36.289Z,16.88
2022-08-19T07:11:36.276Z,16.88
2022-08-19T07:12:38.246Z,16.88
2022-08-19T07:13:36.331Z,16.88
2022-08-19T07:14:36.247Z,16.88
2022-08-19T07:15:36.242Z,11.25
2022-08-19T07:16:37.325Z,11.25
2022-08-19T07:17:36.215Z,16.88
2022-08-19T07:18:36.231Z,16.88
2022-08-19T07:19:36.186Z,11.25
2022-08-19T07:20:36.182Z,11.25
2022-08-19T07:21:37.576Z,11.25
2022-08-19T07:22:36.200Z,16.88
2022-08-19T07:24:36.143Z,16.88
2022-08-19T07:25:36.124Z,16.88
2022-08-19T07:26:36.123Z,22.50
2022-08-19T07:27:36.164Z,22.50
2022-08-19T07:28:36.097Z,22.50
2022-08-19T07:29:36.089Z,22.50
2022-08-19T07:30:36.072Z,22.50
2022-08-19T07:31:36.061Z,28.12
2022-08-19T07:32:36.105Z,22.50
2022-08-19T07:33:36.045Z,22.50
2022-08-19T07:34:36.053Z,22.50
2022-08-19T07:35:36.028Z,22.50
2022-08-19T07:36:36.018Z,22.50
2022-08-19T07:37:36.025Z,22.50
2022-08-19T07:38:35.980Z,16.88
2022-08-19T07:39:36.036Z,16.88
2022-08-19T07:40:35.967Z,16.88
2022-08-19T07:41:36.008Z,16.88
2022-08-19T07:42:35.939Z,16.88
2022-08-19T07:43:35.937Z,16.88
2022-08-19T07:44:35.946Z,16.88
2022-08-19T07:45:35.912Z,16.88
2022-08-19T07:46:35.938Z,11.25
2022-08-19T07:47:49.995Z,16.88
2022-08-19T07:48:36.914Z,11.25
2022-08-19T07:49:35.867Z,11.25
2022-08-19T07:50:35.851Z,11.25
2022-08-19T07:51:36.318Z,11.25
2022-08-19T07:52:35.835Z,11.25
2022-08-19T07:53:39.664Z,11.25
2022-08-19T07:54:35.819Z,11.25
2022-08-19T07:55:42.351Z,11.25
2022-08-19T07:56:36.803Z,16.88
2022-08-19T07:57:35.790Z,11.25
2022-08-19T07:58:35.768Z,11.25
2022-08-19T07:59:35.795Z,11.25
2022-08-19T08:00:35.746Z,11.25
2022-08-19T08:01:35.764Z,11.25
2022-08-19T08:02:36.734Z,11.25
2022-08-19T08:03:35.747Z,11.25
2022-08-19T08:04:35.707Z,11.25
2022-08-19T08:05:35.800Z,11.25
2022-08-19T08:06:35.685Z,16.88
2022-08-19T08:07:35.713Z,11.25
2022-08-19T08:08:35.667Z,11.25
2022-08-19T08:09:35.652Z,11.25
2022-08-19T08:10:35.645Z,16.88
2022-08-19T08:11:35.630Z,16.88
2022-08-19T08:12:35.700Z,22.50
2022-08-19T08:13:35.625Z,28.12
2022-08-19T08:14:35.599Z,22.50
2022-08-19T08:15:39.974Z,22.50
2022-08-19T08:16:39.549Z,28.12
2022-08-19T08:17:49.802Z,28.12
2022-08-19T08:18:36.558Z,28.12
2022-08-19T08:19:35.543Z,28.12
2022-08-19T08:20:35.538Z,22.50
2022-08-19T08:21:35.591Z,16.88
2022-08-19T08:22:35.544Z,16.88
2022-08-19T08:23:35.498Z,16.88
2022-08-19T08:24:35.486Z,16.88
2022-08-19T08:25:35.475Z,16.88
2022-08-19T08:26:35.472Z,16.88
2022-08-19T08:27:35.507Z,11.25
2022-08-19T08:28:35.446Z,11.25
2022-08-19T08:29:35.447Z,11.25
2022-08-19T08:30:35.427Z,11.25
2022-08-19T08:31:35.420Z,11.25
2022-08-19T08:32:35.404Z,11.25
2022-08-19T08:33:37.192Z,11.25
2022-08-19T08:34:35.388Z,11.25
2022-08-19T08:35:35.370Z,11.25
2022-08-19T08:36:35.360Z,11.25
2022-08-19T08:37:35.350Z,11.25
2022-08-19T08:38:39.788Z,11.25
2022-08-19T08:39:36.400Z,11.25
2022-08-19T08:40:35.319Z,11.25
2022-08-19T08:41:35.326Z,16.88
2022-08-19T08:42:35.340Z,22.50
2022-08-19T08:43:35.329Z,28.12
2022-08-19T08:44:35.289Z,33.75
2022-08-19T08:45:42.500Z,33.75
2022-08-19T08:46:36.275Z,28.12
2022-08-19T08:47:35.280Z,28.12
2022-08-19T08:48:35.240Z,22.50
2022-08-19T08:49:35.231Z,16.88
2022-08-19T08:50:35.217Z,22.50
2022-08-19T08:51:35.332Z,28.12
2022-08-19T08:52:35.211Z,28.12
2022-08-19T08:53:39.089Z,22.50
2022-08-19T08:54:36.168Z,16.88
2022-08-19T08:55:36.774Z,16.88
2022-08-19T08:56:35.162Z,22.50
2022-08-19T08:57:41.036Z,28.12
2022-08-19T08:58:35.131Z,39.38
2022-08-19T08:59:35.137Z,50.62
2022-08-19T09:00:35.123Z,61.88
2022-08-19T09:01:35.115Z,56.25
2022-08-19T09:02:35.131Z,39.38
2022-08-19T09:03:35.076Z,22.50
2022-08-19T09:04:35.063Z,22.50
2022-08-19T09:05:39.662Z,16.88
2022-08-19T09:06:36.041Z,16.88
2022-08-19T09:07:37.403Z,16.88
2022-08-19T09:08:35.055Z,16.88
2022-08-19T09:09:35.022Z,16.88
2022-08-19T09:10:35.001Z,22.50
2022-08-19T09:11:42.586Z,22.50
2022-08-19T09:12:36.024Z,22.50
2022-08-19T09:13:37.646Z,22.50
2022-08-19T09:14:50.193Z,22.50
2022-08-19T09:15:36.865Z,22.50
2022-08-19T09:16:34.991Z,28.12
2022-08-19T09:17:36.437Z,33.75
2022-08-19T09:18:34.948Z,33.75
2022-08-19T09:19:34.938Z,33.75
2022-08-19T09:20:34.911Z,45.00
2022-08-19T09:21:34.896Z,95.62
2022-08-19T09:22:34.877Z,140.62
2022-08-19T09:23:34.906Z,140.62
2022-08-19T09:24:34.862Z,146.25
2022-08-19T09:25:34.861Z,146.25
2022-08-19T09:26:47.336Z,140.62
2022-08-19T09:27:43.069Z,112.50
2022-08-19T09:28:35.816Z,84.38
2022-08-19T09:29:34.809Z,78.75
2022-08-19T09:30:34.797Z,73.12
2022-08-19T09:31:34.792Z,73.12
2022-08-19T09:32:34.841Z,73.12
2022-08-19T09:33:34.765Z,73.12
2022-08-19T09:34:37.876Z,73.12
2022-08-19T09:35:50.014Z,78.75
2022-08-19T09:36:35.735Z,67.50
2022-08-19T09:37:34.754Z,73.12
2022-08-19T09:38:34.707Z,61.88
2022-08-19T09:39:35.932Z,39.38
2022-08-19T09:40:38.254Z,33.75
2022-08-19T09:41:34.711Z,39.38
2022-08-19T09:42:37.712Z,45.00
2022-08-19T09:43:44.186Z,45.00
2022-08-19T09:44:35.657Z,45.00
2022-08-19T09:45:35.160Z,50.62
2022-08-19T09:46:34.624Z,61.88
2022-08-19T09:47:34.640Z,67.50
2022-08-19T09:48:34.630Z,78.75
2022-08-19T09:49:34.592Z,90.00
2022-08-19T09:50:34.589Z,112.50
2022-08-19T09:51:34.966Z,112.50
2022-08-19T09:52:34.585Z,123.75
2022-08-19T09:53:34.581Z,112.50
2022-08-19T09:54:34.545Z,101.25
2022-08-19T09:55:34.529Z,78.75
2022-08-19T09:56:34.516Z,78.75
2022-08-19T09:57:34.555Z,84.38
2022-08-19T09:58:34.488Z,84.38
2022-08-19T09:59:34.480Z,73.12
2022-08-19T10:00:34.483Z,39.38
2022-08-19T10:01:34.531Z,56.25
2022-08-19T10:02:34.448Z,78.75
2022-08-19T10:03:34.492Z,67.50
2022-08-19T10:04:34.428Z,45.00
2022-08-19T10:05:34.424Z,45.00
2022-08-19T10:06:38.225Z,45.00
2022-08-19T10:07:36.348Z,28.12
2022-08-19T10:08:34.388Z,28.12
2022-08-19T10:09:35.097Z,16.88
2022-08-19T10:10:34.382Z,16.88
2022-08-19T10:11:36.374Z,16.88
2022-08-19T10:12:35.344Z,22.50
2022-08-19T10:13:34.332Z,22.50
2022-08-19T10:14:34.376Z,22.50
2022-08-19T10:15:34.322Z,28.12
2022-08-19T10:16:39.530Z,28.12
2022-08-19T10:17:34.288Z,33.75
2022-08-19T10:18:34.292Z,39.38
2022-08-19T10:19:34.282Z,28.12
2022-08-19T10:20:34.288Z,16.88
2022-08-19T10:21:34.247Z,16.88
2022-08-19T10:22:34.251Z,11.25
2022-08-19T10:23:34.237Z,11.25
2022-08-19T10:24:34.274Z,16.88
2022-08-19T10:25:34.209Z,16.88
2022-08-19T10:26:34.199Z,16.88
2022-08-19T10:27:34.193Z,28.12
2022-08-19T10:28:34.171Z,28.12
2022-08-19T10:29:34.243Z,22.50
2022-08-19T10:30:34.147Z,28.12
2022-08-19T10:32:00.328Z,28.12
2022-08-19T10:32:35.149Z,33.75
2022-08-19T10:33:53.095Z,67.50
2022-08-19T10:34:36.166Z,61.88
2022-08-19T10:35:42.692Z,84.38
2022-08-19T10:36:35.262Z,106.88
2022-08-19T10:37:34.068Z,67.50
2022-08-19T10:38:34.061Z,39.38
2022-08-19T10:39:43.484Z,28.12
2022-08-19T10:40:35.260Z,28.12
2022-08-19T10:41:34.093Z,39.38
2022-08-19T10:42:34.041Z,50.62
2022-08-19T10:43:34.013Z,56.25
2022-08-19T10:44:34.037Z,39.38
2022-08-19T10:45:33.996Z,45.00
2022-08-19T10:46:33.974Z,73.12
2022-08-19T10:47:33.980Z,78.75
2022-08-19T10:48:33.956Z,90.00
2022-08-19T10:49:33.943Z,67.50
2022-08-19T10:50:33.995Z,56.25
2022-08-19T10:51:33.965Z,78.75
2022-08-19T10:52:33.938Z,50.62
2022-08-19T10:53:33.967Z,33.75
2022-08-19T10:54:33.895Z,33.75
2022-08-19T10:55:33.942Z,39.38
2022-08-19T10:56:33.868Z,33.75
2022-08-19T10:57:52.283Z,28.12
2022-08-19T10:58:34.872Z,33.75
2022-08-19T10:59:36.117Z,84.38
2022-08-19T11:00:33.882Z,67.50
2022-08-19T11:01:33.853Z,56.25
2022-08-19T11:02:33.805Z,33.75
2022-08-19T11:03:33.795Z,33.75
2022-08-19T11:04:33.775Z,33.75
2022-08-19T11:05:40.113Z,28.12
2022-08-19T11:06:34.796Z,28.12
2022-08-19T11:07:33.750Z,28.12
2022-08-19T11:08:33.748Z,28.12
2022-08-19T11:09:34.467Z,28.12
2022-08-19T11:10:33.746Z,28.12
2022-08-19T11:11:33.707Z,33.75
2022-08-19T11:12:33.697Z,33.75
2022-08-19T11:13:33.709Z,39.38
2022-08-19T11:14:34.033Z,28.12
2022-08-19T11:15:33.713Z,22.50
2022-08-19T11:16:33.648Z,16.88
2022-08-19T11:17:33.651Z,22.50
2022-08-19T11:18:33.630Z,16.88
2022-08-19T11:19:33.641Z,22.50
2022-08-19T11:20:33.599Z,22.50
2022-08-19T11:21:33.635Z,22.50
2022-08-19T11:22:36.691Z,22.50
2022-08-19T11:23:34.585Z,22.50
2022-08-19T11:24:33.568Z,16.88
2022-08-19T11:25:33.557Z,22.50
2022-08-19T11:26:33.587Z,22.50
2022-08-19T11:27:33.543Z,22.50
2022-08-19T11:28:33.528Z,28.12
2022-08-19T11:29:33.516Z,33.75
2022-08-19T11:30:33.502Z,33.75
2022-08-19T11:31:33.525Z,22.50
2022-08-19T11:32:33.475Z,22.50
2022-08-19T11:33:33.471Z,16.88
2022-08-19T11:34:33.469Z,16.88
2022-08-19T11:35:33.471Z,16.88
2022-08-19T11:36:33.458Z,22.50
2022-08-19T11:37:33.426Z,16.88
2022-08-19T11:38:33.419Z,16.88
2022-08-19T11:39:33.451Z,16.88
2022-08-19T11:40:33.446Z,28.12
2022-08-19T11:41:33.399Z,22.50
2022-08-19T11:42:33.379Z,22.50
2022-08-19T11:43:37.272Z,22.50
2022-08-19T11:44:33.349Z,16.88
2022-08-19T11:45:33.382Z,22.50
2022-08-19T11:46:33.344Z,22.50
2022-08-19T11:47:33.324Z,28.12
2022-08-19T11:48:33.314Z,28.12
2022-08-19T11:49:33.328Z,28.12
2022-08-19T11:50:33.336Z,28.12
2022-08-19T11:51:33.282Z,22.50
2022-08-19T11:52:33.271Z,22.50
2022-08-19T11:53:33.257Z,22.50
2022-08-19T11:54:33.246Z,22.50
2022-08-19T11:55:33.280Z,16.88
2022-08-19T11:56:33.419Z,16.88
2022-08-19T11:57:33.208Z,16.88
2022-08-19T11:58:33.208Z,16.88
2022-08-19T11:59:33.212Z,16.88
2022-08-19T12:00:33.203Z,22.50
2022-08-19T12:01:33.161Z,28.12
2022-08-19T12:02:33.148Z,28.12
2022-08-19T12:03:33.177Z,28.12
2022-08-19T12:04:33.143Z,28.12
2022-08-19T12:05:33.161Z,28.12
2022-08-19T12:06:33.105Z,33.75
2022-08-19T12:07:33.110Z,45.00
2022-08-19T12:08:33.082Z,45.00
2022-08-19T12:09:33.074Z,50.62
2022-08-19T12:10:33.240Z,61.88
2022-08-19T12:11:34.606Z,61.88
2022-08-19T12:12:33.041Z,56.25
2022-08-19T12:13:33.030Z,56.25
2022-08-19T12:14:33.024Z,56.25
2022-08-19T12:15:37.141Z,50.62
2022-08-19T12:16:33.019Z,45.00
2022-08-19T12:17:32.997Z,45.00
2022-08-19T12:18:32.987Z,33.75
2022-08-19T12:19:32.965Z,33.75
2022-08-19T12:20:35.492Z,33.75
2022-08-19T12:21:32.945Z,33.75
2022-08-19T12:22:32.937Z,33.75
2022-08-19T12:23:32.931Z,39.38
2022-08-19T12:24:32.917Z,50.62
2022-08-19T12:25:32.908Z,67.50
2022-08-19T12:26:32.917Z,78.75
2022-08-19T12:27:40.835Z,84.38
2022-08-19T12:28:33.872Z,73.12
2022-08-19T12:29:32.859Z,95.62
2022-08-19T12:30:32.850Z,95.62
2022-08-19T12:31:32.881Z,67.50
2022-08-19T12:32:32.844Z,61.88
2022-08-19T12:33:32.835Z,56.25
2022-08-19T12:34:32.799Z,50.62
2022-08-19T12:35:32.790Z,61.88
2022-08-19T12:36:32.784Z,67.50
2022-08-19T12:37:32.803Z,61.88
2022-08-19T12:38:32.762Z,67.50
2022-08-19T12:39:32.796Z,78.75
2022-08-19T12:40:32.772Z,84.38
2022-08-19T12:41:32.722Z,90.00
2022-08-19T12:42:34.764Z,95.62
2022-08-19T12:43:32.700Z,84.38
2022-08-19T12:44:32.982Z,106.88
2022-08-19T12:45:32.698Z,101.25
2022-08-19T12:46:32.724Z,106.88
2022-08-19T12:47:32.727Z,101.25
2022-08-19T12:48:34.451Z,101.25
2022-08-19T12:49:53.260Z,101.25
2022-08-19T12:50:33.645Z,95.62
2022-08-19T12:51:32.634Z,101.25
2022-08-19T12:52:32.644Z,101.25
2022-08-19T12:53:32.594Z,90.00
2022-08-19T12:54:32.592Z,95.62
2022-08-19T12:55:32.578Z,61.88
2022-08-19T12:56:32.567Z,61.88
2022-08-19T12:57:33.475Z,61.88
2022-08-19T12:58:32.544Z,56.25
2022-08-19T12:59:32.526Z,33.75
2022-08-19T13:00:32.514Z,28.12
2022-08-19T13:01:32.509Z,28.12
2022-08-19T13:02:32.525Z,33.75
2022-08-19T13:03:36.450Z,56.25
2022-08-19T13:04:33.498Z,73.12